Terminal Aerodrome Forecast
Issued by NWS Portland, ME

Home | Current Version | Previous Version | Text Only | Print | Product List | Glossary On
Versions: 1 2 3 4 5 6 7 8 9 10 11 12 13 14 15 16 17 18 19 20 21 22 23 24 25
037
FTUS41 KGYX 250611 AAA
TAFPWM
TAF AMD
KPWM 250611Z 2506/2606 VRB03KT 3SM -DZ BR OVC002
      TEMPO 2506/2510 1/2SM FG VV001
     FM251300 21007KT P6SM SCT030
     FM251800 18012KT P6SM SCT045=

USA.gov is the U.S. government's official web portal to all federal, state and local government web resources and services.